Terminal Aerodrome Forecast
Issued by NWS Kansas City/Pleasant Hill, MO

Home | Current Version | Previous Version | Text Only | Print | Product List | Glossary On
Versions: 1 2 3 4 5 6 7 8 9 10 11 12 13
937
FTUS43 KEAX 050007 AAA
TAFMCI
TAF AMD
KMCI 050007Z 0500/0524 VRB04KT P6SM SKC
     FM050600 VRB04KT 4SM BR FEW200
     FM051400 18008KT P6SM SCT020=

USA.gov is the U.S. government's official web portal to all federal, state and local government web resources and services.